sensor_id;sensor_type;location;lat;lon;timestamp;temperature;humidity
16060;DHT22;8134;49.552;7.632;2022-12-22T08:54:16;10.70;99.90
16060;DHT22;8134;49.552;7.632;2022-12-22T08:56:42;10.70;99.90
16060;DHT22;8134;49.552;7.632;2022-12-22T08:59:08;10.70;99.90
16060;DHT22;8134;49.552;7.632;2022-12-22T09:01:35;10.60;99.90
16060;DHT22;8134;49.552;7.632;2022-12-22T09:04:00;10.60;99.90
16060;DHT22;8134;49.552;7.632;2022-12-22T09:06:26;10.60;99.90
16060;DHT22;8134;49.552;7.632;2022-12-22T09:08:55;10.60;99.90
16060;DHT22;8134;49.552;7.632;2022-12-22T09:11:21;10.70;99.90
16060;DHT22;8134;49.552;7.632;2022-12-22T09:13:49;10.70;99.90
16060;DHT22;8134;49.552;7.632;2022-12-22T09:16:14;10.80;99.90
16060;DHT22;8134;49.552;7.632;2022-12-22T09:18:40;10.80;99.90
16060;DHT22;8134;49.552;7.632;2022-12-22T09:21:05;10.70;99.90
16060;DHT22;8134;49.552;7.632;2022-12-22T09:23:31;10.90;99.90
16060;DHT22;8134;49.552;7.632;2022-12-22T09:25:57;10.80;99.90
16060;DHT22;8134;49.552;7.632;2022-12-22T09:28:22;10.80;99.90
16060;DHT22;8134;49.552;7.632;2022-12-22T09:30:48;10.80;99.90
16060;DHT22;8134;49.552;7.632;2022-12-22T09:33:14;10.80;99.90
16060;DHT22;8134;49.552;7.632;2022-12-22T09:35:43;10.80;99.90
16060;DHT22;8134;49.552;7.632;2022-12-22T09:38:11;10.80;99.90
16060;DHT22;8134;49.552;7.632;2022-12-22T09:40:37;10.90;99.90
16060;DHT22;8134;49.552;7.632;2022-12-22T09:43:03;10.90;99.90
16060;DHT22;8134;49.552;7.632;2022-12-22T09:45:29;10.90;99.90
16060;DHT22;8134;49.552;7.632;2022-12-22T09:47:55;10.90;99.90
16060;DHT22;8134;49.552;7.632;2022-12-22T09:50:21;10.80;99.90
16060;DHT22;8134;49.552;7.632;2022-12-22T09:53:11;10.80;99.90
16060;DHT22;8134;49.552;7.632;2022-12-22T09:55:40;10.70;99.90
16060;DHT22;8134;49.552;7.632;2022-12-22T09:58:18;10.90;99.90
16060;DHT22;8134;49.552;7.632;2022-12-22T10:03:47;10.80;99.90
16060;DHT22;8134;49.552;7.632;2022-12-22T10:08:43;10.80;99.90
16060;DHT22;8134;49.552;7.632;2022-12-22T10:11:13;10.80;99.90
16060;DHT22;8134;49.552;7.632;2022-12-22T10:13:39;10.80;99.90
16060;DHT22;8134;49.552;7.632;2022-12-22T10:16:18;10.90;99.90
16060;DHT22;8134;49.552;7.632;2022-12-22T10:19:05;10.90;99.90
16060;DHT22;8134;49.552;7.632;2022-12-22T10:21:31;10.90;99.90
16060;DHT22;8134;49.552;7.632;2022-12-22T10:23:56;10.90;99.90
16060;DHT22;8134;49.552;7.632;2022-12-22T10:26:26;10.90;99.90
16060;DHT22;8134;49.552;7.632;2022-12-22T10:31:28;11.00;99.90
16060;DHT22;8134;49.552;7.632;2022-12-22T10:34:09;10.90;99.90
16060;DHT22;8134;49.552;7.632;2022-12-22T10:36:35;10.90;99.90
16060;DHT22;8134;49.552;7.632;2022-12-22T10:39:02;10.90;99.90
16060;DHT22;8134;49.552;7.632;2022-12-22T10:41:36;10.90;99.90
16060;DHT22;8134;49.552;7.632;2022-12-22T10:44:06;10.80;99.90
16060;DHT22;8134;49.552;7.632;2022-12-22T10:46:40;10.80;99.90
16060;DHT22;8134;49.552;7.632;2022-12-22T10:49:11;10.80;99.90
16060;DHT22;8134;49.552;7.632;2022-12-22T10:51:37;10.70;99.90
16060;DHT22;8134;49.552;7.632;2022-12-22T10:54:03;10.70;99.90
16060;DHT22;8134;49.552;7.632;2022-12-22T10:56:30;10.70;99.90
16060;DHT22;8134;49.552;7.632;2022-12-22T11:01:36;10.80;99.90
16060;DHT22;8134;49.552;7.632;2022-12-22T11:04:24;10.90;99.90
16060;DHT22;8134;49.552;7.632;2022-12-22T11:06:49;10.90;99.90
16060;DHT22;8134;49.552;7.632;2022-12-22T11:09:16;10.90;99.90
16060;DHT22;8134;49.552;7.632;2022-12-22T11:14:16;11.00;99.90
16060;DHT22;8134;49.552;7.632;2022-12-22T11:16:50;10.90;99.90
16060;DHT22;8134;49.552;7.632;2022-12-22T11:22:01;10.90;99.90
16060;DHT22;8134;49.552;7.632;2022-12-22T11:24:34;11.00;99.90
16060;DHT22;8134;49.552;7.632;2022-12-22T11:33:23;11.20;99.90
16060;DHT22;8134;49.552;7.632;2022-12-22T11:35:29;11.20;99.90
16060;DHT22;8134;49.552;7.632;2022-12-22T11:40:29;11.50;99.90
16060;DHT22;8134;49.552;7.632;2022-12-22T11:48:21;11.30;99.90
16060;DHT22;8134;49.552;7.632;2022-12-22T11:50:52;11.30;99.90
16060;DHT22;8134;49.552;7.632;2022-12-22T11:58:27;11.30;99.90
16060;DHT22;8134;49.552;7.632;2022-12-22T12:09:00;11.20;99.90
16060;DHT22;8134;49.552;7.632;2022-12-22T12:14:21;11.20;99.90
16060;DHT22;8134;49.552;7.632;2022-12-22T12:16:58;11.20;99.90
16060;DHT22;8134;49.552;7.632;2022-12-22T12:21:58;11.20;99.90
16060;DHT22;8134;49.552;7.632;2022-12-22T12:24:27;11.20;99.90
16060;DHT22;8134;49.552;7.632;2022-12-22T12:29:41;11.20;99.90
16060;DHT22;8134;49.552;7.632;2022-12-22T12:34:34;11.30;99.90
16060;DHT22;8134;49.552;7.632;2022-12-22T12:37:19;11.30;99.90
16060;DHT22;8134;49.552;7.632;2022-12-22T12:40:07;11.30;99.90
16060;DHT22;8134;49.552;7.632;2022-12-22T12:42:43;11.30;99.90
16060;DHT22;8134;49.552;7.632;2022-12-22T12:47:53;11.30;99.90
16060;DHT22;8134;49.552;7.632;2022-12-22T12:50:39;11.40;99.90
16060;DHT22;8134;49.552;7.632;2022-12-22T12:53:05;11.40;99.90
16060;DHT22;8134;49.552;7.632;2022-12-22T12:58:03;11.50;99.90
16060;DHT22;8134;49.552;7.632;2022-12-22T13:02:55;11.50;99.90
16060;DHT22;8134;49.552;7.632;2022-12-22T13:21:00;11.40;99.90
16060;DHT22;8134;49.552;7.632;2022-12-22T13:23:37;11.30;99.90
16060;DHT22;8134;49.552;7.632;2022-12-22T13:26:16;11.30;99.90
16060;DHT22;8134;49.552;7.632;2022-12-22T13:28:42;11.20;99.90
16060;DHT22;8134;49.552;7.632;2022-12-22T13:31:13;11.20;99.90
16060;DHT22;8134;49.552;7.632;2022-12-22T13:33:40;11.10;99.90
16060;DHT22;8134;49.552;7.632;2022-12-22T13:36:07;11.00;99.90
16060;DHT22;8134;49.552;7.632;2022-12-22T13:38:39;10.90;99.90
16060;DHT22;8134;49.552;7.632;2022-12-22T13:41:15;10.90;99.90
16060;DHT22;8134;49.552;7.632;2022-12-22T13:43:41;10.90;99.90
16060;DHT22;8134;49.552;7.632;2022-12-22T13:46:08;11.00;99.90
16060;DHT22;8134;49.552;7.632;2022-12-22T13:48:38;11.00;99.90
16060;DHT22;8134;49.552;7.632;2022-12-22T13:51:06;11.00;99.90
16060;DHT22;8134;49.552;7.632;2022-12-22T13:53:40;11.00;99.90
16060;DHT22;8134;49.552;7.632;2022-12-22T13:56:07;11.00;99.90
16060;DHT22;8134;49.552;7.632;2022-12-22T13:58:37;11.00;99.90
16060;DHT22;8134;49.552;7.632;2022-12-22T14:03:36;10.90;99.90
16060;DHT22;8134;49.552;7.632;2022-12-22T14:06:17;11.00;99.90
16060;DHT22;8134;49.552;7.632;2022-12-22T14:08:42;10.90;99.90
16060;DHT22;8134;49.552;7.632;2022-12-22T14:11:08;10.90;99.90
16060;DHT22;8134;49.552;7.632;2022-12-22T14:13:34;11.00;99.90
16060;DHT22;8134;49.552;7.632;2022-12-22T14:16:00;11.10;99.90
16060;DHT22;8134;49.552;7.632;2022-12-22T14:18:26;11.20;99.90
16060;DHT22;8134;49.552;7.632;2022-12-22T14:20:52;11.20;99.90
16060;DHT22;8134;49.552;7.632;2022-12-22T14:23:22;11.30;99.90
16060;DHT22;8134;49.552;7.632;2022-12-22T14:25:49;11.00;99.90
16060;DHT22;8134;49.552;7.632;2022-12-22T14:30:42;10.90;99.90
16060;DHT22;8134;49.552;7.632;2022-12-22T14:33:24;10.90;99.90
16060;DHT22;8134;49.552;7.632;2022-12-22T14:38:42;11.00;99.90
16060;DHT22;8134;49.552;7.632;2022-12-22T14:44:23;10.80;99.90
16060;DHT22;8134;49.552;7.632;2022-12-22T14:49:52;10.80;99.90
16060;DHT22;8134;49.552;7.632;2022-12-22T14:54:53;10.80;99.90
16060;DHT22;8134;49.552;7.632;2022-12-22T14:57:28;10.70;99.90
16060;DHT22;8134;49.552;7.632;2022-12-22T15:00:38;10.70;99.90
16060;DHT22;8134;49.552;7.632;2022-12-22T15:02:48;10.70;99.90
16060;DHT22;8134;49.552;7.632;2022-12-22T15:05:22;10.60;99.90
16060;DHT22;8134;49.552;7.632;2022-12-22T15:07:48;10.60;99.90
16060;DHT22;8134;49.552;7.632;2022-12-22T15:10:14;10.60;99.90
16060;DHT22;8134;49.552;7.632;2022-12-22T15:12:40;10.60;99.90
16060;DHT22;8134;49.552;7.632;2022-12-22T15:15:16;10.50;99.90
16060;DHT22;8134;49.552;7.632;2022-12-22T15:17:43;10.50;99.90
16060;DHT22;8134;49.552;7.632;2022-12-22T15:20:11;10.40;99.90
16060;DHT22;8134;49.552;7.632;2022-12-22T15:22:37;10.40;99.90
16060;DHT22;8134;49.552;7.632;2022-12-22T15:25:10;10.40;99.90
16060;DHT22;8134;49.552;7.632;2022-12-22T15:27:35;10.40;99.90
16060;DHT22;8134;49.552;7.632;2022-12-22T15:30:01;10.40;99.90
16060;DHT22;8134;49.552;7.632;2022-12-22T15:32:26;10.30;99.90
16060;DHT22;8134;49.552;7.632;2022-12-22T15:34:53;10.20;99.90
16060;DHT22;8134;49.552;7.632;2022-12-22T15:37:19;10.20;99.90
16060;DHT22;8134;49.552;7.632;2022-12-22T15:39:44;10.20;99.90
16060;DHT22;8134;49.552;7.632;2022-12-22T15:42:10;10.30;99.90
16060;DHT22;8134;49.552;7.632;2022-12-22T15:44:35;10.30;99.90
16060;DHT22;8134;49.552;7.632;2022-12-22T15:47:01;10.30;99.90
16060;DHT22;8134;49.552;7.632;2022-12-22T15:49:26;10.30;99.90
16060;DHT22;8134;49.552;7.632;2022-12-22T15:51:53;10.20;99.90
16060;DHT22;8134;49.552;7.632;2022-12-22T15:54:20;10.20;99.90
16060;DHT22;8134;49.552;7.632;2022-12-22T15:56:46;10.30;99.90
16060;DHT22;8134;49.552;7.632;2022-12-22T15:59:14;10.20;99.90
16060;DHT22;8134;49.552;7.632;2022-12-22T16:01:40;10.10;99.90
16060;DHT22;8134;49.552;7.632;2022-12-22T16:04:06;10.10;99.90
16060;DHT22;8134;49.552;7.632;2022-12-22T16:06:31;10.00;99.90
16060;DHT22;8134;49.552;7.632;2022-12-22T16:08:57;10.00;99.90
16060;DHT22;8134;49.552;7.632;2022-12-22T16:11:24;10.10;99.90
16060;DHT22;8134;49.552;7.632;2022-12-22T16:13:53;10.10;99.90
16060;DHT22;8134;49.552;7.632;2022-12-22T16:16:18;10.20;99.90
16060;DHT22;8134;49.552;7.632;2022-12-22T16:18:44;10.20;99.90
16060;DHT22;8134;49.552;7.632;2022-12-22T16:21:13;10.30;99.90
16060;DHT22;8134;49.552;7.632;2022-12-22T16:23:40;10.40;99.90
16060;DHT22;8134;49.552;7.632;2022-12-22T16:26:06;10.40;99.90
16060;DHT22;8134;49.552;7.632;2022-12-22T16:28:32;10.40;99.90
16060;DHT22;8134;49.552;7.632;2022-12-22T16:30:58;10.40;99.90
16060;DHT22;8134;49.552;7.632;2022-12-22T16:33:24;10.40;99.90
16060;DHT22;8134;49.552;7.632;2022-12-22T16:35:50;10.50;99.90
16060;DHT22;8134;49.552;7.632;2022-12-22T16:38:15;10.60;99.90
16060;DHT22;8134;49.552;7.632;2022-12-22T16:40:42;10.60;99.90
16060;DHT22;8134;49.552;7.632;2022-12-22T16:43:16;10.60;99.90
16060;DHT22;8134;49.552;7.632;2022-12-22T16:45:44;10.60;99.90
16060;DHT22;8134;49.552;7.632;2022-12-22T16:48:20;10.60;99.90
16060;DHT22;8134;49.552;7.632;2022-12-22T16:50:48;10.60;99.90
16060;DHT22;8134;49.552;7.632;2022-12-22T16:53:14;10.60;99.90
16060;DHT22;8134;49.552;7.632;2022-12-22T16:55:40;10.50;99.90
16060;DHT22;8134;49.552;7.632;2022-12-22T16:58:06;10.60;99.90
16060;DHT22;8134;49.552;7.632;2022-12-22T17:00:31;10.60;99.90
16060;DHT22;8134;49.552;7.632;2022-12-22T17:07:50;10.60;99.90
16060;DHT22;8134;49.552;7.632;2022-12-22T17:10:16;10.60;99.90
16060;DHT22;8134;49.552;7.632;2022-12-22T17:12:43;10.60;99.90
16060;DHT22;8134;49.552;7.632;2022-12-22T17:15:12;10.60;99.90
16060;DHT22;8134;49.552;7.632;2022-12-22T17:17:40;10.60;99.90
16060;DHT22;8134;49.552;7.632;2022-12-22T17:20:08;10.60;99.90
16060;DHT22;8134;49.552;7.632;2022-12-22T17:22:34;10.60;99.90
16060;DHT22;8134;49.552;7.632;2022-12-22T17:25:03;10.60;99.90
16060;DHT22;8134;49.552;7.632;2022-12-22T17:27:30;10.60;99.90
16060;DHT22;8134;49.552;7.632;2022-12-22T17:29:56;10.60;99.90
16060;DHT22;8134;49.552;7.632;2022-12-22T17:32:23;10.70;99.90
16060;DHT22;8134;49.552;7.632;2022-12-22T17:34:48;10.70;99.90
16060;DHT22;8134;49.552;7.632;2022-12-22T17:37:18;10.80;99.90
16060;DHT22;8134;49.552;7.632;2022-12-22T17:39:44;10.80;99.90
16060;DHT22;8134;49.552;7.632;2022-12-22T17:42:15;10.80;99.90
16060;DHT22;8134;49.552;7.632;2022-12-22T17:44:41;10.80;99.90
16060;DHT22;8134;49.552;7.632;2022-12-22T17:47:09;10.80;99.90
16060;DHT22;8134;49.552;7.632;2022-12-22T17:49:35;10.80;99.90
16060;DHT22;8134;49.552;7.632;2022-12-22T17:52:05;10.90;99.90
16060;DHT22;8134;49.552;7.632;2022-12-22T17:54:33;10.90;99.90
16060;DHT22;8134;49.552;7.632;2022-12-22T17:56:59;10.90;99.90
16060;DHT22;8134;49.552;7.632;2022-12-22T17:59:28;10.80;99.90
16060;DHT22;8134;49.552;7.632;2022-12-22T18:01:54;10.70;99.90
16060;DHT22;8134;49.552;7.632;2022-12-22T18:04:20;10.70;99.90
16060;DHT22;8134;49.552;7.632;2022-12-22T18:06:46;10.70;99.90
16060;DHT22;8134;49.552;7.632;2022-12-22T18:09:18;10.70;99.90
16060;DHT22;8134;49.552;7.632;2022-12-22T18:11:45;10.70;99.90
16060;DHT22;8134;49.552;7.632;2022-12-22T18:14:11;10.70;99.90
16060;DHT22;8134;49.552;7.632;2022-12-22T18:16:37;10.80;99.90
16060;DHT22;8134;49.552;7.632;2022-12-22T18:19:03;10.80;99.90
16060;DHT22;8134;49.552;7.632;2022-12-22T18:21:29;10.80;99.90
16060;DHT22;8134;49.552;7.632;2022-12-22T18:23:55;10.80;99.90
16060;DHT22;8134;49.552;7.632;2022-12-22T18:26:24;10.80;99.90
16060;DHT22;8134;49.552;7.632;2022-12-22T18:28:50;10.80;99.90
16060;DHT22;8134;49.552;7.632;2022-12-22T18:31:16;10.80;99.90
16060;DHT22;8134;49.552;7.632;2022-12-22T18:33:42;10.80;99.90
16060;DHT22;8134;49.552;7.632;2022-12-22T18:36:30;10.80;99.90
16060;DHT22;8134;49.552;7.632;2022-12-22T18:38:57;10.80;99.90
16060;DHT22;8134;49.552;7.632;2022-12-22T18:41:23;10.70;99.90
16060;DHT22;8134;49.552;7.632;2022-12-22T18:43:49;10.80;99.90
16060;DHT22;8134;49.552;7.632;2022-12-22T18:46:15;10.80;99.90
16060;DHT22;8134;49.552;7.632;2022-12-22T18:48:40;10.80;99.90
16060;DHT22;8134;49.552;7.632;2022-12-22T18:51:11;10.80;99.90
16060;DHT22;8134;49.552;7.632;2022-12-22T18:53:40;10.80;99.90
16060;DHT22;8134;49.552;7.632;2022-12-22T18:56:07;10.80;99.90
16060;DHT22;8134;49.552;7.632;2022-12-22T18:58:35;10.80;99.90
16060;DHT22;8134;49.552;7.632;2022-12-22T19:01:02;10.80;99.90
16060;DHT22;8134;49.552;7.632;2022-12-22T19:03:27;10.80;99.90
16060;DHT22;8134;49.552;7.632;2022-12-22T19:05:57;10.90;99.90
16060;DHT22;8134;49.552;7.632;2022-12-22T19:08:24;10.70;99.90
16060;DHT22;8134;49.552;7.632;2022-12-22T19:10:57;10.60;99.90
16060;DHT22;8134;49.552;7.632;2022-12-22T19:13:27;10.70;99.90
16060;DHT22;8134;49.552;7.632;2022-12-22T19:15:52;10.60;99.90
16060;DHT22;8134;49.552;7.632;2022-12-22T19:18:19;10.60;99.90
16060;DHT22;8134;49.552;7.632;2022-12-22T19:20:45;10.50;99.90
16060;DHT22;8134;49.552;7.632;2022-12-22T19:23:11;10.70;99.90
16060;DHT22;8134;49.552;7.632;2022-12-22T19:25:37;10.70;99.90
16060;DHT22;8134;49.552;7.632;2022-12-22T19:28:07;10.70;99.90
16060;DHT22;8134;49.552;7.632;2022-12-22T19:30:36;10.70;99.90
16060;DHT22;8134;49.552;7.632;2022-12-22T19:33:01;10.70;99.90
16060;DHT22;8134;49.552;7.632;2022-12-22T19:35:28;10.70;99.90
16060;DHT22;8134;49.552;7.632;2022-12-22T19:37:54;10.70;99.90
16060;DHT22;8134;49.552;7.632;2022-12-22T19:40:20;10.70;99.90
16060;DHT22;8134;49.552;7.632;2022-12-22T19:42:48;10.70;99.90
16060;DHT22;8134;49.552;7.632;2022-12-22T19:45:15;10.80;99.90
16060;DHT22;8134;49.552;7.632;2022-12-22T19:47:41;10.70;99.90
16060;DHT22;8134;49.552;7.632;2022-12-22T19:50:18;10.70;99.90
16060;DHT22;8134;49.552;7.632;2022-12-22T19:52:44;10.60;99.90
16060;DHT22;8134;49.552;7.632;2022-12-22T19:55:10;10.60;99.90
16060;DHT22;8134;49.552;7.632;2022-12-22T19:57:35;10.60;99.90
16060;DHT22;8134;49.552;7.632;2022-12-22T20:00:16;10.60;99.90
16060;DHT22;8134;49.552;7.632;2022-12-22T20:02:42;10.70;99.90
16060;DHT22;8134;49.552;7.632;2022-12-22T20:05:15;10.70;99.90
16060;DHT22;8134;49.552;7.632;2022-12-22T20:07:45;10.70;99.90
16060;DHT22;8134;49.552;7.632;2022-12-22T20:10:10;10.70;99.90
16060;DHT22;8134;49.552;7.632;2022-12-22T20:12:36;10.70;99.90
16060;DHT22;8134;49.552;7.632;2022-12-22T20:15:19;10.60;99.90
16060;DHT22;8134;49.552;7.632;2022-12-22T20:17:45;10.60;99.90
16060;DHT22;8134;49.552;7.632;2022-12-22T20:20:12;10.60;99.90
16060;DHT22;8134;49.552;7.632;2022-12-22T20:22:39;10.60;99.90
16060;DHT22;8134;49.552;7.632;2022-12-22T20:25:05;10.60;99.90
16060;DHT22;8134;49.552;7.632;2022-12-22T20:27:34;10.40;99.90
16060;DHT22;8134;49.552;7.632;2022-12-22T20:30:00;10.40;99.90
16060;DHT22;8134;49.552;7.632;2022-12-22T20:32:25;10.50;99.90
16060;DHT22;8134;49.552;7.632;2022-12-22T20:34:50;10.40;99.90
16060;DHT22;8134;49.552;7.632;2022-12-22T20:37:16;10.40;99.90
16060;DHT22;8134;49.552;7.632;2022-12-22T20:39:43;10.40;99.90
16060;DHT22;8134;49.552;7.632;2022-12-22T20:42:18;10.40;99.90
16060;DHT22;8134;49.552;7.632;2022-12-22T20:44:44;10.30;99.90
16060;DHT22;8134;49.552;7.632;2022-12-22T20:47:13;10.40;99.90
16060;DHT22;8134;49.552;7.632;2022-12-22T20:49:39;10.40;99.90
16060;DHT22;8134;49.552;7.632;2022-12-22T20:52:05;10.40;99.90
16060;DHT22;8134;49.552;7.632;2022-12-22T20:54:31;10.40;99.90
16060;DHT22;8134;49.552;7.632;2022-12-22T20:56:56;10.40;99.90
16060;DHT22;8134;49.552;7.632;2022-12-22T20:59:22;10.50;99.90
16060;DHT22;8134;49.552;7.632;2022-12-22T21:01:49;10.50;99.90
16060;DHT22;8134;49.552;7.632;2022-12-22T21:04:14;10.60;99.90
16060;DHT22;8134;49.552;7.632;2022-12-22T21:06:58;10.50;99.90
16060;DHT22;8134;49.552;7.632;2022-12-22T21:09:24;10.50;99.90
16060;DHT22;8134;49.552;7.632;2022-12-22T21:11:50;10.50;99.90
16060;DHT22;8134;49.552;7.632;2022-12-22T21:14:15;10.50;99.90
16060;DHT22;8134;49.552;7.632;2022-12-22T21:16:41;10.60;99.90
16060;DHT22;8134;49.552;7.632;2022-12-22T21:19:07;10.50;99.90
16060;DHT22;8134;49.552;7.632;2022-12-22T21:21:32;10.60;99.90
16060;DHT22;8134;49.552;7.632;2022-12-22T21:23:58;10.60;99.90
16060;DHT22;8134;49.552;7.632;2022-12-22T21:26:31;10.50;99.90
16060;DHT22;8134;49.552;7.632;2022-12-22T21:28:57;10.50;99.90
16060;DHT22;8134;49.552;7.632;2022-12-22T21:31:22;10.50;99.90
16060;DHT22;8134;49.552;7.632;2022-12-22T21:33:48;10.50;99.90
16060;DHT22;8134;49.552;7.632;2022-12-22T21:36:18;10.50;99.90
16060;DHT22;8134;49.552;7.632;2022-12-22T21:38:45;10.50;99.90
16060;DHT22;8134;49.552;7.632;2022-12-22T21:41:11;10.50;99.90
16060;DHT22;8134;49.552;7.632;2022-12-22T21:43:37;10.50;99.90
16060;DHT22;8134;49.552;7.632;2022-12-22T21:46:02;10.50;99.90
16060;DHT22;8134;49.552;7.632;2022-12-22T21:48:28;10.50;99.90
16060;DHT22;8134;49.552;7.632;2022-12-22T21:50:53;10.60;99.90
16060;DHT22;8134;49.552;7.632;2022-12-22T21:53:19;10.60;99.90
16060;DHT22;8134;49.552;7.632;2022-12-22T21:55:45;10.60;99.90
16060;DHT22;8134;49.552;7.632;2022-12-22T21:58:11;10.60;99.90
16060;DHT22;8134;49.552;7.632;2022-12-22T22:00:41;10.60;99.90
16060;DHT22;8134;49.552;7.632;2022-12-22T22:03:08;10.60;99.90
16060;DHT22;8134;49.552;7.632;2022-12-22T22:05:35;10.70;99.90
16060;DHT22;8134;49.552;7.632;2022-12-22T22:08:02;10.60;99.90
16060;DHT22;8134;49.552;7.632;2022-12-22T22:10:29;10.60;99.90
16060;DHT22;8134;49.552;7.632;2022-12-22T22:12:55;10.60;99.90
16060;DHT22;8134;49.552;7.632;2022-12-22T22:15:22;10.60;99.90
16060;DHT22;8134;49.552;7.632;2022-12-22T22:17:47;10.70;99.90
